Time;durP1;ratioP1;P1;durP2;ratioP2;P2;SDS_P1;SDS_P2;PMS_P1;PMS_P2;Temp;Humidity;BMP_temperature;BMP_pressure;BME280_temperature;BME280_humidity;BME280_pressure;Samples;Min_cycle;Max_cycle;Signal;HPM_P1;HPM_P2
2023/12/15 00:00:01;;;;;;;27.33;16.17;;;;;;;5.62;63.08;100989.22;5005053;28;96879;-77
2023/12/15 02:47:07;;;;;;;26.07;14.27;;;;;;;5.12;64.03;101193.22;5030477;27;98569;-76
2023/12/15 02:49:38;;;;;;;25.10;15.43;;;;;;;5.11;63.82;101193.19;5001399;27;101446;-76
2023/12/15 02:52:03;;;;;;;30.17;17.63;;;;;;;5.02;63.76;101196.66;4998415;27;101534;-76
2023/12/15 02:54:29;;;;;;;31.30;17.43;;;;;;;4.93;64.20;101178.41;5054265;27;96745;-77
2023/12/15 02:56:54;;;;;;;32.63;17.27;;;;;;;5.05;64.08;101206.19;5019276;27;97210;-78
2023/12/15 02:59:20;;;;;;;33.40;17.57;;;;;;;5.04;64.17;101205.34;5015890;27;101055;-78
2023/12/15 03:01:46;;;;;;;31.90;17.27;;;;;;;5.09;63.91;101213.13;5035192;27;97288;-76
2023/12/15 03:04:11;;;;;;;28.87;16.30;;;;;;;5.04;64.12;101207.09;5018978;27;96793;-76
2023/12/15 03:06:37;;;;;;;24.77;16.13;;;;;;;4.95;63.96;101211.38;5036306;27;96820;-76
2023/12/15 03:09:02;;;;;;;24.00;15.60;;;;;;;4.89;64.08;101200.09;5018249;27;101538;-76
2023/12/15 03:11:28;;;;;;;26.17;15.13;;;;;;;4.98;63.89;101224.41;5053582;27;97349;-77
2023/12/15 03:13:53;;;;;;;27.60;15.13;;;;;;;4.88;63.73;101199.19;5009326;27;96877;-76
2023/12/15 03:16:22;;;;;;;27.90;15.40;;;;;;;4.87;63.88;101205.28;5018145;28;97534;-76
2023/12/15 03:18:47;;;;;;;25.10;14.70;;;;;;;4.91;63.88;101201.81;5026645;27;97551;-77
2023/12/15 03:21:12;;;;;;;25.87;15.30;;;;;;;5.04;63.99;101228.75;5017840;27;100917;-76
2023/12/15 03:23:38;;;;;;;34.73;17.60;;;;;;;4.84;63.65;101210.47;5025409;27;96738;-76
2023/12/15 03:26:04;;;;;;;31.40;15.77;;;;;;;5.06;63.26;101233.97;5018715;27;96974;-76
2023/12/15 03:28:29;;;;;;;34.20;17.17;;;;;;;4.99;63.14;101238.28;5035163;27;97553;-77
2023/12/15 03:30:55;;;;;;;37.33;18.97;;;;;;;4.92;63.10;101236.53;5011228;28;101245;-77
2023/12/15 03:33:23;;;;;;;27.80;16.10;;;;;;;4.83;63.55;101247.78;5015108;28;97127;-77
2023/12/15 03:35:49;;;;;;;26.63;14.80;;;;;;;4.87;63.65;101233.91;5034549;27;97191;-76
2023/12/15 03:38:14;;;;;;;25.13;14.73;;;;;;;4.87;63.79;101240.84;5035349;27;97524;-76
2023/12/15 03:40:40;;;;;;;31.37;16.07;;;;;;;4.92;63.45;101246.94;5036011;27;97380;-76
2023/12/15 03:43:05;;;;;;;24.07;14.70;;;;;;;4.95;63.24;101246.94;5039397;27;97127;-76
2023/12/15 03:45:31;;;;;;;29.93;15.57;;;;;;;4.80;63.37;101226.94;5039236;27;96775;-76
2023/12/15 03:47:56;;;;;;;28.20;14.97;;;;;;;5.00;63.38;101258.22;5031525;28;97532;-76
2023/12/15 03:50:23;;;;;;;34.37;17.27;;;;;;;4.95;63.60;101255.63;5014437;27;100933;-76
2023/12/15 03:52:49;;;;;;;30.13;15.87;;;;;;;4.99;62.92;101257.34;5039208;27;97116;-76
2023/12/15 03:55:14;;;;;;;37.77;18.87;;;;;;;4.94;63.24;101261.66;5022163;27;98125;-76
2023/12/15 03:57:40;;;;;;;33.10;16.00;;;;;;;4.92;63.24;101268.63;5038494;27;97916;-76
2023/12/15 04:00:08;;;;;;;31.37;17.60;;;;;;;4.96;63.59;101272.09;5021075;27;100902;-76
2023/12/15 04:02:34;;;;;;;31.10;16.60;;;;;;;4.94;63.46;101266.00;5038591;27;96784;-76
2023/12/15 04:04:59;;;;;;;30.67;17.13;;;;;;;5.01;63.66;101274.72;5038958;27;97470;-76
2023/12/15 04:07:25;;;;;;;30.47;17.33;;;;;;;4.97;63.92;101276.44;5021532;27;101245;-76
2023/12/15 04:09:51;;;;;;;29.70;15.97;;;;;;;5.02;63.25;101284.28;5038358;27;97424;-76
2023/12/15 04:12:17;;;;;;;26.17;16.80;;;;;;;5.00;63.77;101294.66;5025724;27;96799;-76
2023/12/15 04:14:42;;;;;;;32.37;16.60;;;;;;;4.87;63.71;101293.75;5038741;27;96901;-76
2023/12/15 04:17:08;;;;;;;29.90;16.70;;;;;;;4.91;63.93;101302.44;5021195;27;101264;-77
2023/12/15 04:19:33;;;;;;;27.30;16.67;;;;;;;4.92;63.86;101310.25;5055829;27;98034;-76
2023/12/15 04:21:59;;;;;;;30.47;16.37;;;;;;;4.91;64.13;101313.69;5021469;27;97102;-76
2023/12/15 04:24:25;;;;;;;34.23;18.83;;;;;;;4.92;64.00;101310.25;5021810;27;97278;-76
2023/12/15 04:26:51;;;;;;;28.80;16.80;;;;;;;4.80;64.08;101307.59;5045154;27;97779;-76
2023/12/15 04:29:16;;;;;;;31.43;16.67;;;;;;;4.87;63.94;101322.38;5021302;27;98204;-76
2023/12/15 04:31:43;;;;;;;32.93;18.23;;;;;;;4.83;64.28;101319.72;5020894;27;96867;-76
2023/12/15 04:34:09;;;;;;;29.87;16.37;;;;;;;4.88;64.12;101321.50;5038674;27;96886;-76
2023/12/15 04:36:35;;;;;;;29.50;16.37;;;;;;;4.89;64.04;101327.59;5021201;27;97546;-76
2023/12/15 04:39:00;;;;;;;34.93;17.60;;;;;;;4.91;64.18;101338.84;5020722;27;101062;-76
2023/12/15 04:41:27;;;;;;;35.37;17.50;;;;;;;4.91;64.33;101346.66;5020788;27;97229;-76
2023/12/15 04:43:52;;;;;;;39.40;19.60;;;;;;;4.91;64.36;101355.31;5021373;27;96894;-76
2023/12/15 04:46:28;;;;;;;38.57;19.10;;;;;;;4.91;64.25;101350.13;5037087;27;97393;-76
2023/12/15 04:48:55;;;;;;;34.37;18.37;;;;;;;4.96;64.46;101347.56;5037287;27;97769;-76
2023/12/15 04:51:21;;;;;;;34.80;18.77;;;;;;;4.97;64.17;101363.19;5055758;27;96698;-76
2023/12/15 04:53:48;;;;;;;33.07;19.40;;;;;;;5.04;64.20;101363.22;5004241;27;97377;-76
2023/12/15 04:56:14;;;;;;;34.27;19.17;;;;;;;4.99;64.12;101363.19;5037720;27;98011;-76
2023/12/15 04:58:40;;;;;;;34.40;18.97;;;;;;;4.81;64.55;101350.94;5020354;27;99501;-76
2023/12/15 05:01:12;;;;;;;30.73;16.07;;;;;;;4.80;64.69;101363.94;5037562;27;96857;-77
2023/12/15 05:03:39;;;;;;;26.63;16.37;;;;;;;4.91;64.26;101386.56;5019382;27;96894;-76
2023/12/15 05:06:05;;;;;;;24.83;15.77;;;;;;;4.92;64.68;101379.66;5037399;27;97506;-77
2023/12/15 05:08:31;;;;;;;26.37;16.37;;;;;;;4.95;64.47;101387.47;5037282;27;100990;-76
2023/12/15 05:10:57;;;;;;;28.73;16.50;;;;;;;4.94;64.31;101386.56;5030460;27;96745;-75
2023/12/15 05:13:22;;;;;;;30.53;17.47;;;;;;;4.88;64.48;101370.94;5024825;27;96754;-76
2023/12/15 05:15:48;;;;;;;29.53;17.27;;;;;;;4.85;64.56;101362.25;5011909;27;97457;-76
2023/12/15 05:18:13;;;;;;;30.10;17.70;;;;;;;4.84;64.26;101366.56;5014679;27;97329;-76
2023/12/15 05:20:39;;;;;;;29.23;16.60;;;;;;;4.93;64.47;101396.97;5047741;27;97342;-75
2023/12/15 05:23:05;;;;;;;26.57;15.30;;;;;;;4.94;64.58;101398.72;5019534;27;97417;-76
2023/12/15 05:25:31;;;;;;;29.07;15.47;;;;;;;5.06;64.26;101398.81;5037152;27;97436;-75
2023/12/15 05:27:57;;;;;;;28.33;16.70;;;;;;;4.99;64.29;101397.03;5019932;27;97332;-75
2023/12/15 05:30:22;;;;;;;32.33;17.13;;;;;;;4.91;64.68;101403.91;5024252;27;98124;-75
2023/12/15 05:32:48;;;;;;;30.83;17.30;;;;;;;4.81;64.41;101376.97;5013214;27;98504;-75
2023/12/15 05:35:14;;;;;;;31.23;16.50;;;;;;;4.88;64.47;101386.53;5042467;27;98169;-75
2023/12/15 05:37:40;;;;;;;29.60;16.13;;;;;;;5.04;64.15;101408.34;5022254;27;97374;-75
2023/12/15 05:40:09;;;;;;;27.83;15.90;;;;;;;5.04;64.25;101413.53;5006366;27;97390;-76
2023/12/15 05:42:35;;;;;;;29.23;16.23;;;;;;;5.00;64.60;101409.16;5011465;27;97175;-76
2023/12/15 05:45:00;;;;;;;28.30;15.83;;;;;;;5.02;64.56;101414.38;5014704;27;100928;-75
2023/12/15 05:47:26;;;;;;;30.13;17.23;;;;;;;5.06;64.66;101419.63;5017020;27;101322;-75
2023/12/15 05:49:51;;;;;;;30.87;15.97;;;;;;;5.00;64.76;101409.16;5028276;27;96845;-75
2023/12/15 05:52:17;;;;;;;30.90;16.40;;;;;;;5.07;65.14;101416.16;5028205;27;96912;-75
2023/12/15 05:54:42;;;;;;;27.20;14.80;;;;;;;5.09;64.55;101424.84;5044998;27;97706;-74
2023/12/15 05:57:08;;;;;;;27.40;15.97;;;;;;;5.03;64.63;101431.72;5035172;27;97931;-76
2023/12/15 05:59:33;;;;;;;28.33;15.37;;;;;;;4.81;64.74;101416.00;5016765;28;96798;-77
2023/12/15 06:01:59;;;;;;;29.23;15.33;;;;;;;5.05;64.87;101446.50;5013336;27;97233;-74
2023/12/15 06:04:24;;;;;;;28.80;15.80;;;;;;;5.16;64.44;101451.78;5013974;27;101065;-80
2023/12/15 06:06:50;;;;;;;29.93;16.30;;;;;;;5.07;63.97;101434.38;5040117;27;98160;-77
2023/12/15 06:09:16;;;;;;;32.23;18.40;;;;;;;5.03;64.25;101430.00;5004543;27;96845;-75
2023/12/15 06:11:42;;;;;;;26.53;16.07;;;;;;;5.09;63.94;101450.00;5008035;27;98293;-74
2023/12/15 06:14:11;;;;;;;27.13;15.97;;;;;;;5.06;63.56;101452.56;5028991;27;97174;-75
2023/12/15 06:16:36;;;;;;;26.50;14.63;;;;;;;5.06;63.62;101452.56;5009627;27;97341;-75
2023/12/15 06:19:02;;;;;;;25.53;16.30;;;;;;;4.90;63.50;101438.59;5038367;27;97531;-75
2023/12/15 06:21:28;;;;;;;26.07;16.10;;;;;;;4.82;63.94;101432.47;5014186;27;96916;-74
2023/12/15 06:23:54;;;;;;;32.47;17.73;;;;;;;4.98;63.93;101469.03;5034668;27;97425;-74
2023/12/15 06:26:26;;;;;;;34.63;19.00;;;;;;;4.97;63.78;101469.00;5035153;27;97859;-75
2023/12/15 06:28:53;;;;;;;33.50;18.65;;;;;;;4.93;64.07;101472.44;5005181;28;96801;-75
2023/12/15 06:31:19;;;;;;;34.57;18.27;;;;;;;4.79;64.07;101463.66;5012976;27;97095;-75
2023/12/15 06:33:44;;;;;;;31.27;17.43;;;;;;;4.90;64.32;101477.63;5054124;27;98685;-75
2023/12/15 06:36:10;;;;;;;28.63;15.80;;;;;;;4.99;63.78;101485.50;5034955;27;101462;-75
2023/12/15 06:38:36;;;;;;;29.77;17.33;;;;;;;4.92;64.18;101475.91;5036047;27;96788;-75
2023/12/15 06:41:04;;;;;;;33.90;18.20;;;;;;;4.97;64.20;101497.63;5032431;27;98565;-75
2023/12/15 06:43:29;;;;;;;32.30;18.13;;;;;;;4.98;64.08;101499.38;5021305;27;97896;-74
2023/12/15 06:45:55;;;;;;;32.03;18.50;;;;;;;5.01;64.25;101495.94;5015452;27;97438;-75
2023/12/15 06:48:21;;;;;;;34.30;19.67;;;;;;;4.99;64.39;101503.72;5037190;27;98104;-76
2023/12/15 06:50:46;;;;;;;27.13;16.70;;;;;;;4.90;64.32;101503.66;5046041;27;97451;-75
2023/12/15 06:53:12;;;;;;;29.10;16.00;;;;;;;4.95;64.12;101520.19;5019310;27;97229;-75
2023/12/15 06:55:37;;;;;;;26.27;15.83;;;;;;;4.80;64.23;101500.13;5020791;27;98144;-74
2023/12/15 06:58:03;;;;;;;31.63;17.20;;;;;;;4.92;64.54;101527.97;5034357;27;96741;-74
2023/12/15 07:00:28;;;;;;;32.47;18.30;;;;;;;4.93;64.32;101522.75;5018283;27;97036;-78
2023/12/15 07:02:54;;;;;;;34.17;18.60;;;;;;;4.97;64.63;101537.56;5018421;27;97467;-80
2023/12/15 07:05:19;;;;;;;29.50;17.40;;;;;;;5.06;63.97;101530.66;5025971;27;99045;-80
2023/12/15 07:07:45;;;;;;;26.67;16.23;;;;;;;4.99;64.57;101532.34;5022411;28;97325;-78
2023/12/15 07:10:10;;;;;;;32.50;17.90;;;;;;;4.98;64.58;101526.28;5015332;27;97295;-75
2023/12/15 07:12:36;;;;;;;29.27;18.40;;;;;;;4.97;64.30;101523.66;5024069;27;97662;-75
2023/12/15 07:15:02;;;;;;;29.73;17.20;;;;;;;4.95;64.44;101535.78;5041922;27;97374;-74
2023/12/15 07:17:27;;;;;;;30.00;17.40;;;;;;;4.94;64.45;101521.03;5014159;27;98798;-75
2023/12/15 07:19:53;;;;;;;29.40;16.87;;;;;;;5.04;64.26;101535.00;5023653;27;96902;-74
2023/12/15 07:22:18;;;;;;;28.03;16.40;;;;;;;5.05;64.41;101540.19;5038834;27;97481;-75
2023/12/15 07:24:44;;;;;;;28.57;18.23;;;;;;;4.81;64.49;101501.84;5031200;27;97814;-75
2023/12/15 07:27:10;;;;;;;29.47;17.53;;;;;;;5.10;64.46;101548.06;5035538;27;97312;-74
2023/12/15 07:29:35;;;;;;;31.77;18.13;;;;;;;4.82;64.53;101518.31;5049283;27;96810;-74
2023/12/15 07:32:00;;;;;;;30.60;17.37;;;;;;;5.02;64.45;101534.97;5022046;28;97746;-74
2023/12/15 07:34:26;;;;;;;30.80;17.17;;;;;;;5.10;64.15;101537.66;5039729;27;98140;-76
2023/12/15 07:36:51;;;;;;;28.87;16.57;;;;;;;5.16;64.48;101555.91;5043864;27;96812;-75
2023/12/15 07:39:21;;;;;;;30.93;16.50;;;;;;;5.14;64.67;101563.69;5022333;27;96890;-74
2023/12/15 07:41:50;;;;;;;30.17;17.57;;;;;;;5.16;64.64;101567.19;5019676;27;99414;-75
2023/12/15 07:44:16;;;;;;;32.77;18.57;;;;;;;5.17;63.95;101561.13;5013870;27;98513;-74
2023/12/15 07:46:42;;;;;;;32.67;18.60;;;;;;;5.01;64.32;101548.84;5018781;27;97474;-74
2023/12/15 07:49:09;;;;;;;33.00;18.57;;;;;;;5.21;64.37;101569.84;5024898;27;97211;-75
2023/12/15 07:51:34;;;;;;;31.20;17.47;;;;;;;5.17;63.88;101563.72;5048684;27;98130;-74
2023/12/15 07:54:00;;;;;;;31.13;17.00;;;;;;;5.25;64.07;101566.38;5028758;27;99299;-75
2023/12/15 07:56:26;;;;;;;29.60;18.03;;;;;;;5.30;63.74;101576.84;5016094;27;96792;-75
2023/12/15 07:58:52;;;;;;;27.07;17.00;;;;;;;5.19;63.77;101577.63;5030702;27;96884;-74
2023/12/15 08:01:19;;;;;;;32.23;18.40;;;;;;;5.35;63.74;101608.97;5028764;27;98141;-74
2023/12/15 08:03:45;;;;;;;32.07;17.73;;;;;;;5.40;63.66;101608.16;5028041;27;101381;-74
2023/12/15 08:06:12;;;;;;;31.80;18.77;;;;;;;5.51;63.81;101618.66;5009637;27;96761;-74
2023/12/15 08:08:38;;;;;;;32.73;18.27;;;;;;;5.51;63.70;101612.59;5011387;27;97528;-74
2023/12/15 08:11:04;;;;;;;30.73;18.13;;;;;;;5.52;63.56;101601.31;5025945;27;97416;-75
2023/12/15 08:13:30;;;;;;;30.27;18.27;;;;;;;5.57;63.89;101610.03;5026025;27;97584;-74
2023/12/15 08:15:56;;;;;;;32.53;19.93;;;;;;;5.59;63.53;101616.13;5048056;27;97341;-74
2023/12/15 08:18:21;;;;;;;29.63;17.10;;;;;;;5.47;63.65;101600.38;5030166;27;97017;-75
2023/12/15 08:20:47;;;;;;;33.53;18.20;;;;;;;5.37;64.00;101589.91;5031480;27;97289;-75
2023/12/15 08:23:14;;;;;;;33.27;18.10;;;;;;;5.30;64.14;101605.50;5015551;27;99079;-74
2023/12/15 08:25:39;;;;;;;32.50;19.47;;;;;;;5.44;64.02;101607.34;5017019;27;97413;-74
2023/12/15 08:28:05;;;;;;;31.60;18.13;;;;;;;5.60;63.94;101634.34;5055135;27;97264;-73
2023/12/15 08:30:30;;;;;;;30.73;17.83;;;;;;;5.57;63.85;101630.88;5049076;27;97566;-74
2023/12/15 08:32:58;;;;;;;33.23;18.20;;;;;;;5.57;63.68;101642.16;5051842;27;97411;-74
2023/12/15 08:35:24;;;;;;;35.30;19.50;;;;;;;5.61;64.20;101638.72;5031777;27;97527;-74
2023/12/15 08:37:49;;;;;;;36.77;19.30;;;;;;;5.65;63.81;101650.91;5019797;27;97719;-74
2023/12/15 08:40:15;;;;;;;32.23;19.23;;;;;;;5.73;63.47;101645.75;5016113;27;100737;-75
2023/12/15 08:42:41;;;;;;;35.60;18.83;;;;;;;5.67;63.88;101643.97;5034370;27;97400;-74
2023/12/15 08:45:07;;;;;;;32.63;19.10;;;;;;;5.60;63.69;101644.78;5002015;27;96808;-74
2023/12/15 08:47:33;;;;;;;31.73;18.23;;;;;;;5.61;63.70;101654.38;5017378;27;97146;-74
2023/12/15 08:49:58;;;;;;;40.03;21.20;;;;;;;5.56;64.16;101653.44;5025081;27;101512;-77
2023/12/15 08:52:24;;;;;;;36.73;21.70;;;;;;;5.62;63.79;101660.44;5032204;27;99303;-75
2023/12/15 08:54:49;;;;;;;32.67;18.53;;;;;;;5.51;63.54;101660.34;5050329;27;97299;-75
2023/12/15 08:57:15;;;;;;;30.60;18.37;;;;;;;5.56;63.40;101665.59;5032702;27;97528;-75
2023/12/15 08:59:40;;;;;;;36.03;19.15;;;;;;;5.37;64.12;101642.00;5049459;27;98006;-74
2023/12/15 09:02:06;;;;;;;31.67;18.73;;;;;;;5.59;63.75;101668.22;5031751;27;97449;-75
2023/12/15 09:04:32;;;;;;;37.80;20.30;;;;;;;5.64;63.78;101666.50;5029552;27;100085;-76
2023/12/15 09:06:58;;;;;;;29.77;17.73;;;;;;;5.65;63.10;101665.66;5049385;27;96753;-75
2023/12/15 09:09:24;;;;;;;29.13;18.40;;;;;;;5.75;63.00;101677.88;5011123;27;97544;-79
2023/12/15 09:11:50;;;;;;;32.83;19.00;;;;;;;5.80;62.86;101685.75;5017610;27;98238;-83
2023/12/15 09:14:16;;;;;;;34.53;20.00;;;;;;;5.72;63.32;101684.81;5027967;27;96982;-76
2023/12/15 09:16:42;;;;;;;29.07;17.50;;;;;;;5.65;63.09;101666.53;5031498;27;97666;-75
2023/12/15 09:19:08;;;;;;;35.30;19.83;;;;;;;5.69;62.77;101662.22;5048910;27;97389;-76
2023/12/15 09:21:34;;;;;;;30.93;18.73;;;;;;;5.81;63.37;101682.28;5031914;27;97415;-75
2023/12/15 09:24:00;;;;;;;32.43;18.17;;;;;;;5.83;63.32;101678.81;5031011;27;97016;-75
2023/12/15 09:26:26;;;;;;;37.47;17.33;;;;;;;5.85;63.21;101681.47;5016836;27;96815;-76
2023/12/15 09:28:53;;;;;;;33.33;17.37;;;;;;;5.84;63.09;101685.78;5028801;27;98039;-76
2023/12/15 09:31:18;;;;;;;31.00;18.97;;;;;;;5.67;63.12;101658.72;5012381;27;97318;-76
2023/12/15 09:33:43;;;;;;;28.47;17.97;;;;;;;5.93;62.97;101703.25;5030066;27;99044;-76
2023/12/15 09:36:09;;;;;;;30.93;17.30;;;;;;;5.86;63.02;101701.44;5017801;27;97277;-76
2023/12/15 09:38:35;;;;;;;29.87;16.90;;;;;;;5.94;62.54;101710.22;5016950;27;101454;-77
2023/12/15 09:41:00;;;;;;;30.03;16.97;;;;;;;5.90;62.82;101711.00;5016793;27;100836;-76
2023/12/15 09:43:26;;;;;;;28.23;16.70;;;;;;;5.96;62.37;101708.47;5018601;27;96832;-76
2023/12/15 09:45:51;;;;;;;27.02;15.15;;;;;;;5.96;62.82;101702.38;4995753;27;97205;-76
2023/12/15 09:48:17;;;;;;;24.90;15.13;;;;;;;6.05;62.52;101703.34;5034328;27;97929;-77
2023/12/15 09:50:50;;;;;;;25.77;16.03;;;;;;;5.88;62.21;101686.69;5029945;27;98204;-77
2023/12/15 09:53:18;;;;;;;26.43;15.73;;;;;;;6.04;62.33;101701.59;5017307;27;96976;-74
2023/12/15 09:55:43;;;;;;;28.45;17.08;;;;;;;5.97;61.98;101705.03;5030197;27;97026;-75
2023/12/15 09:58:09;;;;;;;25.17;15.73;;;;;;;5.93;61.95;101703.25;5013759;27;101585;-75
2023/12/15 10:00:35;;;;;;;23.83;15.00;;;;;;;5.97;62.21;101709.38;5026184;27;97485;-75
2023/12/15 10:03:00;;;;;;;27.50;15.27;;;;;;;5.90;61.95;101724.03;5014900;27;96895;-74
2023/12/15 10:05:26;;;;;;;26.63;15.50;;;;;;;5.89;62.05;101717.97;5016561;27;97364;-74
2023/12/15 10:07:52;;;;;;;27.30;16.03;;;;;;;6.02;62.11;101725.88;5015406;27;101064;-75
2023/12/15 10:10:18;;;;;;;28.43;17.37;;;;;;;6.01;62.33;101722.41;5014653;27;97430;-75
2023/12/15 10:12:44;;;;;;;24.17;15.20;;;;;;;6.18;62.21;101732.09;5012476;27;96745;-76
2023/12/15 10:15:10;;;;;;;27.30;14.95;;;;;;;5.93;62.18;101710.16;5027387;27;96855;-75
2023/12/15 10:17:35;;;;;;;25.33;16.13;;;;;;;6.02;62.12;101725.88;5049777;27;97644;-75
2023/12/15 10:20:06;;;;;;;24.60;14.63;;;;;;;5.96;61.96;101705.88;5016604;27;97381;-76
2023/12/15 10:22:32;;;;;;;27.73;15.53;;;;;;;6.05;61.76;101723.31;5030292;27;97627;-75
2023/12/15 10:24:57;;;;;;;25.33;15.57;;;;;;;6.02;61.98;101720.69;5015980;27;96923;-79
2023/12/15 10:27:23;;;;;;;23.98;15.48;;;;;;;6.17;61.76;101722.50;5030247;27;97417;-72
2023/12/15 10:29:48;;;;;;;25.25;15.88;;;;;;;6.20;61.41;101727.78;5028105;27;97388;-77
2023/12/15 10:32:15;;;;;;;25.77;14.00;;;;;;;6.18;61.60;101719.94;4998487;27;100702;-77
2023/12/15 10:34:40;;;;;;;23.20;13.65;;;;;;;6.25;61.56;101721.69;5014387;27;96983;-77
2023/12/15 10:37:06;;;;;;;22.13;13.10;;;;;;;6.13;61.27;101724.22;5024746;27;101516;-76
2023/12/15 10:39:32;;;;;;;26.77;14.88;;;;;;;6.27;60.93;101719.13;5014298;27;100592;-76
2023/12/15 10:41:58;;;;;;;22.98;12.50;;;;;;;6.19;60.52;101689.50;5027957;27;97699;-76
2023/12/15 10:44:25;;;;;;;23.15;14.10;;;;;;;6.43;60.73;101725.28;5025843;27;97983;-73
2023/12/15 10:46:51;;;;;;;21.00;13.05;;;;;;;6.45;60.79;101724.41;5039184;27;99260;-73
2023/12/15 10:49:18;;;;;;;18.10;11.82;;;;;;;6.50;60.39;101727.06;5013681;27;101605;-81
2023/12/15 10:51:43;;;;;;;24.02;13.18;;;;;;;6.50;60.77;101709.66;5027409;27;96857;-79
2023/12/15 10:54:09;;;;;;;24.00;13.52;;;;;;;6.77;60.34;101734.13;5050877;27;97327;-77
2023/12/15 10:56:37;;;;;;;21.58;13.23;;;;;;;6.75;59.94;101730.69;5014257;27;100182;-77
2023/12/15 10:59:05;;;;;;;19.80;12.23;;;;;;;6.67;59.84;101714.09;5016109;27;97347;-83
2023/12/15 11:01:32;;;;;;;22.08;11.85;;;;;;;6.78;59.41;101715.03;5011814;27;97403;-79
2023/12/15 11:03:58;;;;;;;17.02;10.95;;;;;;;7.05;59.14;101724.69;5030782;27;97787;-77
2023/12/15 11:06:33;;;;;;;15.98;11.07;;;;;;;7.18;58.86;101717.72;5012948;27;102576;-76
2023/12/15 11:09:00;;;;;;;17.40;10.90;;;;;;;7.35;58.13;101702.97;5015163;27;97538;-76
2023/12/15 11:11:25;;;;;;;17.75;10.48;;;;;;;7.37;58.49;101726.50;5010254;27;97401;-80
2023/12/15 11:14:01;;;;;;;15.35;9.88;;;;;;;7.41;57.70;101725.59;5017710;27;97212;-77
2023/12/15 11:16:30;;;;;;;20.20;10.40;;;;;;;7.15;57.20;101697.69;5015687;27;97926;-76
2023/12/15 11:18:57;;;;;;;17.00;10.27;;;;;;;7.05;57.16;101729.91;5015648;27;97470;-76
2023/12/15 11:21:23;;;;;;;19.10;10.43;;;;;;;7.14;57.16;101742.97;5028104;27;96858;-77
2023/12/15 11:24:02;;;;;;;16.10;9.77;;;;;;;7.07;57.38;101740.31;5032592;27;96801;-76
2023/12/15 11:26:37;;;;;;;18.70;9.82;;;;;;;6.86;57.53;101738.53;5012188;27;97482;-76
2023/12/15 11:29:08;;;;;;;14.45;9.50;;;;;;;6.88;57.82;101737.66;5021582;27;97811;-76
2023/12/15 11:31:34;;;;;;;16.80;9.75;;;;;;;6.95;57.72;101739.44;5013305;27;96883;-76
2023/12/15 11:34:03;;;;;;;17.15;10.07;;;;;;;6.87;58.46;101730.72;5012113;27;96865;-76
2023/12/15 11:36:30;;;;;;;17.50;10.65;;;;;;;6.83;58.16;101712.41;5021672;27;97731;-76
2023/12/15 11:38:58;;;;;;;15.18;10.35;;;;;;;6.91;58.78;101739.41;5025707;27;97535;-80
2023/12/15 11:41:23;;;;;;;17.08;11.60;;;;;;;6.74;60.01;101729.78;5004069;27;97637;-77
2023/12/15 11:43:50;;;;;;;16.38;10.55;;;;;;;6.87;59.38;101728.09;5015518;27;97325;-76
2023/12/15 11:46:15;;;;;;;17.65;11.77;;;;;;;6.94;60.06;101729.00;5006679;27;97537;-76
2023/12/15 11:48:41;;;;;;;19.15;12.02;;;;;;;6.96;60.16;101728.13;5026138;27;98598;-77
2023/12/15 11:51:11;;;;;;;23.73;12.90;;;;;;;6.98;60.39;101728.13;5029080;27;97231;-77
2023/12/15 11:53:41;;;;;;;21.48;12.77;;;;;;;6.90;61.33;101751.59;5010107;27;97492;-76
2023/12/15 11:56:08;;;;;;;20.90;13.90;;;;;;;6.94;61.01;101740.28;5000798;27;101470;-76
2023/12/15 11:58:35;;;;;;;22.60;14.45;;;;;;;6.94;61.63;101748.13;5009915;27;97462;-80
2023/12/15 12:01:02;;;;;;;19.95;13.10;;;;;;;6.94;61.51;101749.88;5011489;27;97419;-74
2023/12/15 12:03:31;;;;;;;20.20;13.40;;;;;;;6.72;61.52;101720.19;4998653;27;96894;-74
2023/12/15 12:05:59;;;;;;;21.80;14.27;;;;;;;6.73;62.17;101732.41;5000129;27;101642;-74
2023/12/15 12:08:25;;;;;;;19.02;12.93;;;;;;;6.70;62.64;101735.00;5031597;27;97697;-77
2023/12/15 12:10:54;;;;;;;21.50;13.80;;;;;;;6.86;62.08;101726.34;5049045;27;98118;-75
2023/12/15 12:13:19;;;;;;;21.88;13.13;;;;;;;6.81;62.35;101746.34;5007870;27;97711;-75
2023/12/15 12:15:52;;;;;;;19.52;13.93;;;;;;;6.91;62.23;101732.44;5017239;27;101131;-75
2023/12/15 12:18:22;;;;;;;21.42;14.38;;;;;;;7.00;62.10;101750.75;5032806;27;98185;-75
2023/12/15 12:20:48;;;;;;;19.65;13.40;;;;;;;6.88;61.93;101737.66;5027533;27;97398;-73
2023/12/15 12:23:13;;;;;;;18.50;13.30;;;;;;;6.91;61.99;101752.47;5038750;27;97137;-76
2023/12/15 12:25:47;;;;;;;18.85;12.18;;;;;;;6.73;61.75;101742.84;5042422;27;97299;-74
2023/12/15 12:28:13;;;;;;;21.42;13.60;;;;;;;6.71;61.92;101741.94;5019964;27;101057;-74
2023/12/15 12:30:39;;;;;;;18.17;12.02;;;;;;;6.91;61.85;101757.69;5013534;27;97460;-75
2023/12/15 12:33:04;;;;;;;19.50;13.15;;;;;;;6.76;61.88;101730.66;5056356;27;97160;-73
2023/12/15 12:35:30;;;;;;;19.80;13.48;;;;;;;6.81;61.94;101759.41;5014742;27;97492;-74
2023/12/15 12:37:55;;;;;;;19.40;13.63;;;;;;;6.92;61.79;101772.47;5032378;27;97426;-74
2023/12/15 12:40:21;;;;;;;25.92;13.82;;;;;;;6.78;62.18;101773.31;5046455;27;96791;-75
2023/12/15 12:42:47;;;;;;;18.83;12.80;;;;;;;6.79;62.28;101763.75;5010231;27;97912;-74
2023/12/15 12:45:12;;;;;;;18.40;13.10;;;;;;;6.67;62.06;101772.38;5023629;27;98164;-75
2023/12/15 12:47:41;;;;;;;24.00;13.85;;;;;;;6.69;61.86;101777.59;5009271;27;98081;-75
2023/12/15 12:50:08;;;;;;;18.80;12.93;;;;;;;6.78;61.74;101775.06;5031849;27;97416;-74
2023/12/15 12:52:34;;;;;;;19.52;12.07;;;;;;;6.73;61.29;101771.53;5031754;27;97926;-74
2023/12/15 12:55:05;;;;;;;19.33;11.68;;;;;;;6.60;61.34;101769.72;5032264;27;97456;-74
2023/12/15 12:57:30;;;;;;;18.77;10.43;;;;;;;6.63;60.66;101762.78;5018353;27;101329;-73
2023/12/15 12:59:56;;;;;;;14.00;9.52;;;;;;;6.78;60.71;101790.72;5016155;27;97095;-73
2023/12/15 13:02:21;;;;;;;14.95;10.32;;;;;;;6.79;60.30;101768.97;5048253;27;97545;-74
2023/12/15 13:04:49;;;;;;;12.45;9.77;;;;;;;6.82;60.30;101765.50;5015482;27;100442;-74
2023/12/15 13:07:15;;;;;;;21.60;12.07;;;;;;;6.86;60.12;101773.31;5024539;27;98665;-74
2023/12/15 13:09:40;;;;;;;15.40;10.07;;;;;;;6.93;59.84;101779.47;5028792;27;96851;-74
2023/12/15 13:12:06;;;;;;;14.30;9.87;;;;;;;6.91;59.96;101779.44;4998294;27;97388;-74
2023/12/15 13:14:31;;;;;;;18.43;10.30;;;;;;;6.97;59.98;101781.22;5050751;27;98106;-74
2023/12/15 13:16:57;;;;;;;14.05;10.00;;;;;;;6.92;60.10;101772.47;5015350;27;101173;-74
2023/12/15 13:19:25;;;;;;;15.98;9.90;;;;;;;6.91;59.97;101771.63;5046996;27;97049;-77
2023/12/15 13:21:51;;;;;;;15.32;9.80;;;;;;;6.94;59.88;101782.06;5016660;27;97130;-75
2023/12/15 13:24:16;;;;;;;20.65;10.88;;;;;;;6.84;60.23;101771.59;5031714;27;98212;-74
2023/12/15 13:26:42;;;;;;;14.43;9.82;;;;;;;6.75;60.38;101782.88;4993331;27;100746;-74
2023/12/15 13:29:08;;;;;;;15.18;11.05;;;;;;;6.90;60.10;101789.91;4995606;28;96911;-74
2023/12/15 13:31:34;;;;;;;17.08;12.35;;;;;;;6.70;60.09;101764.56;5017586;27;97399;-74
2023/12/15 13:33:59;;;;;;;21.33;12.88;;;;;;;6.84;60.16;101803.78;5046064;27;97510;-74
2023/12/15 13:36:25;;;;;;;18.50;12.18;;;;;;;6.72;60.51;101786.34;5018566;27;97456;-73
2023/12/15 13:38:51;;;;;;;17.75;12.48;;;;;;;6.84;60.45;101811.63;4993205;27;97888;-73
2023/12/15 13:41:17;;;;;;;21.95;12.68;;;;;;;6.83;60.56;101816.81;5015870;27;97307;-75
2023/12/15 13:43:43;;;;;;;20.40;13.88;;;;;;;6.79;60.15;101808.97;5010463;27;98336;-73
2023/12/15 13:46:09;;;;;;;20.77;14.07;;;;;;;6.78;60.52;101822.03;5031274;27;97462;-75
2023/12/15 13:48:38;;;;;;;22.52;13.65;;;;;;;6.68;60.87;101809.78;5030370;27;97404;-73
2023/12/15 13:51:04;;;;;;;20.73;13.88;;;;;;;6.77;61.26;101822.88;5014105;27;98001;-73
2023/12/15 13:53:29;;;;;;;22.60;14.63;;;;;;;6.75;61.38;101828.09;5030476;27;98244;-74
2023/12/15 13:55:56;;;;;;;19.45;12.82;;;;;;;6.77;61.27;101822.88;5029628;27;97416;-78